Time;durP1;ratioP1;P1;durP2;ratioP2;P2;SDS_P1;SDS_P2;PMS_P1;PMS_P2;Temp;Humidity;BMP_temperature;BMP_pressure;BME280_temperature;BME280_humidity;BME280_pressure;Samples;Min_cycle;Max_cycle;Signal;HPM_P1;HPM_P2
2023/02/05 00:01:39;;;;;;;;;;;;;;;6.92;52.20;98631.31;4982723;28;19924;-71
2023/02/05 00:04:04;;;;;;;;;;;;;;;6.92;52.79;98633.91;4983737;28;20296;-72
2023/02/05 00:06:30;;;;;;;;;;;;;;;6.91;51.81;98636.59;5001270;28;20419;-70
2023/02/05 00:08:56;;;;;;;;;;;;;;;6.88;52.50;98640.22;4982858;28;19917;-71
2023/02/05 00:11:21;;;;;;;;;;;;;;;6.88;51.90;98650.63;4984941;28;19970;-71
2023/02/05 00:13:46;;;;;;;;;;;;;;;6.84;51.62;98651.72;4983280;28;19925;-71
2023/02/05 00:16:14;;;;;;;;;;;;;;;6.82;52.00;98661.38;4983306;28;19925;-71
2023/02/05 00:18:40;;;;;;;;;;;;;;;6.78;52.49;98667.66;4984903;28;20012;-71
2023/02/05 00:21:05;;;;;;;;;;;;;;;6.76;51.90;98667.75;4983046;28;20387;-71
2023/02/05 00:23:31;;;;;;;;;;;;;;;6.75;51.65;98675.63;4983232;28;20400;-71
2023/02/05 00:25:56;;;;;;;;;;;;;;;6.74;52.31;98681.78;4984524;28;19932;-72
2023/02/05 00:28:21;;;;;;;;;;;;;;;6.72;51.19;98681.00;5000001;28;19917;-71
2023/02/05 00:30:47;;;;;;;;;;;;;;;6.68;51.18;98683.78;4983791;28;20012;-70
2023/02/05 00:33:12;;;;;;;;;;;;;;;6.69;51.13;98690.66;4987337;28;19918;-70
2023/02/05 00:35:37;;;;;;;;;;;;;;;6.67;51.50;98683.88;5003579;28;19925;-71
2023/02/05 00:38:03;;;;;;;;;;;;;;;6.65;50.78;98680.56;5005470;28;20657;-71
2023/02/05 00:40:28;;;;;;;;;;;;;;;6.64;51.32;98684.94;4971479;28;19941;-71
2023/02/05 00:42:53;;;;;;;;;;;;;;;6.64;50.67;98690.13;4978209;28;19921;-71
2023/02/05 00:45:18;;;;;;;;;;;;;;;6.62;50.91;98691.94;4987686;28;19918;-69
2023/02/05 00:47:44;;;;;;;;;;;;;;;6.62;50.59;98699.72;4969739;28;20050;-70
2023/02/05 00:50:09;;;;;;;;;;;;;;;6.61;50.51;98703.28;4986762;28;19921;-70
2023/02/05 00:52:34;;;;;;;;;;;;;;;6.59;51.03;98710.28;4987322;28;19922;-72
2023/02/05 00:55:00;;;;;;;;;;;;;;;6.58;50.72;98706.03;4985562;28;19922;-70
2023/02/05 00:57:25;;;;;;;;;;;;;;;6.57;50.18;98698.34;4979100;28;19921;-72
2023/02/05 00:59:51;;;;;;;;;;;;;;;6.56;50.97;98696.69;4986874;28;19918;-71
2023/02/05 01:02:22;;;;;;;;;;;;;;;6.56;50.67;98704.47;4972355;28;19924;-72
2023/02/05 01:04:47;;;;;;;;;;;;;;;6.55;50.40;98695.84;4970859;28;20440;-70
2023/02/05 01:07:12;;;;;;;;;;;;;;;6.56;50.36;98697.50;4978045;28;20003;-71
2023/02/05 01:09:38;;;;;;;;;;;;;;;6.56;50.43;98688.91;4973402;28;20380;-71
2023/02/05 01:12:03;;;;;;;;;;;;;;;6.55;50.19;98693.25;4985446;28;19993;-72
2023/02/05 01:14:28;;;;;;;;;;;;;;;6.56;50.18;98687.13;4971988;28;20399;-72
2023/02/05 01:16:54;;;;;;;;;;;;;;;6.54;50.27;98683.81;4985722;28;19922;-71
2023/02/05 01:19:19;;;;;;;;;;;;;;;6.55;50.00;98689.81;4973611;28;19917;-71
2023/02/05 01:21:44;;;;;;;;;;;;;;;6.57;50.32;98687.97;4985647;28;20013;-72
2023/02/05 01:24:10;;;;;;;;;;;;;;;6.55;49.73;98687.22;4986203;28;20369;-71
2023/02/05 01:26:35;;;;;;;;;;;;;;;6.54;50.00;98696.78;4972372;28;20464;-73
2023/02/05 01:29:00;;;;;;;;;;;;;;;6.52;49.39;98696.03;4985114;28;19918;-71
2023/02/05 01:31:28;;;;;;;;;;;;;;;6.53;49.35;98705.47;4986557;28;19925;-72
2023/02/05 01:33:53;;;;;;;;;;;;;;;6.51;49.87;98704.72;5004181;28;19918;-72
2023/02/05 01:36:19;;;;;;;;;;;;;;;6.50;49.56;98703.91;4985021;28;19918;-72
2023/02/05 01:38:44;;;;;;;;;;;;;;;6.51;49.59;98697.81;4986659;28;19921;-71
2023/02/05 01:41:11;;;;;;;;;;;;;;;6.50;49.22;98703.91;4970724;28;19925;-71
2023/02/05 01:43:36;;;;;;;;;;;;;;;6.50;50.07;98705.69;4971256;28;20403;-72
2023/02/05 01:46:20;;;;;;;;;;;;;;;6.49;48.93;98702.22;4984637;28;19918;-71
2023/02/05 01:48:47;;;;;;;;;;;;;;;6.49;48.96;98714.38;4986952;28;19987;-72
2023/02/05 01:51:12;;;;;;;;;;;;;;;6.49;49.41;98714.38;4986084;28;19918;-72
2023/02/05 01:53:38;;;;;;;;;;;;;;;6.48;48.99;98718.75;4976414;28;20297;-73
2023/02/05 01:56:13;;;;;;;;;;;;;;;6.49;49.57;98714.38;5003814;28;19968;-72
2023/02/05 01:58:40;;;;;;;;;;;;;;;6.48;49.08;98731.69;4986426;28;19925;-73
2023/02/05 02:01:05;;;;;;;;;;;;;;;6.48;49.36;98733.44;5001346;28;19983;-72
2023/02/05 02:03:31;;;;;;;;;;;;;;;6.47;48.88;98736.97;4983994;28;19918;-73
2023/02/05 02:05:56;;;;;;;;;;;;;;;6.45;49.15;98738.81;5002060;28;19918;-72
2023/02/05 02:08:21;;;;;;;;;;;;;;;6.44;48.58;98743.16;4986444;28;20409;-71
2023/02/05 02:10:47;;;;;;;;;;;;;;;6.45;48.43;98746.59;4969310;28;19929;-71
2023/02/05 02:13:12;;;;;;;;;;;;;;;6.47;48.89;98749.94;4976703;28;19940;-71
2023/02/05 02:15:37;;;;;;;;;;;;;;;6.46;48.21;98756.88;4972233;28;20359;-71
2023/02/05 02:21:07;;;;;;;;;;;;;;;6.47;48.10;98773.28;4983474;28;19989;-71
2023/02/05 02:23:32;;;;;;;;;;;;;;;6.45;47.74;98785.47;4975195;28;20305;-71
2023/02/05 02:26:15;;;;;;;;;;;;;;;6.45;47.80;98790.66;5001601;28;19925;-70
2023/02/05 02:28:50;;;;;;;;;;;;;;;6.46;47.98;98790.59;4986215;28;19918;-71
2023/02/05 02:31:22;;;;;;;;;;;;;;;6.46;47.57;98794.94;4971287;28;20016;-71
2023/02/05 02:33:54;;;;;;;;;;;;;;;6.45;47.07;98795.84;4985777;28;19921;-71
2023/02/05 02:36:22;;;;;;;;;;;;;;;6.44;46.98;98797.63;4985478;28;19987;-71
2023/02/05 02:38:53;;;;;;;;;;;;;;;6.43;46.84;98797.72;5002599;28;20328;-71
2023/02/05 02:41:20;;;;;;;;;;;;;;;6.42;46.74;98807.25;4985719;28;19925;-71
2023/02/05 02:43:46;;;;;;;;;;;;;;;6.42;47.16;98816.78;4984076;28;19995;-72
2023/02/05 02:46:15;;;;;;;;;;;;;;;6.40;47.20;98809.09;5001991;28;20396;-70
2023/02/05 02:48:40;;;;;;;;;;;;;;;6.40;47.12;98811.69;4985900;28;19918;-70
2023/02/05 02:51:06;;;;;;;;;;;;;;;6.39;46.85;98812.63;4983935;28;19924;-71
2023/02/05 02:53:35;;;;;;;;;;;;;;;6.38;47.01;98816.13;4984133;28;19921;-71
2023/02/05 02:56:01;;;;;;;;;;;;;;;6.37;46.82;98819.63;4971392;28;19925;-72
2023/02/05 02:58:28;;;;;;;;;;;;;;;6.37;47.07;98824.00;4983894;28;19925;-72
2023/02/05 03:00:53;;;;;;;;;;;;;;;6.37;47.53;98824.00;4984257;28;19919;-71
2023/02/05 03:03:19;;;;;;;;;;;;;;;6.34;46.91;98828.44;4985265;28;19932;-71
2023/02/05 03:05:44;;;;;;;;;;;;;;;6.34;47.05;98822.41;4967612;28;19917;-71
2023/02/05 03:08:12;;;;;;;;;;;;;;;6.33;47.33;98833.72;4984146;28;19960;-71
2023/02/05 03:10:45;;;;;;;;;;;;;;;6.33;46.78;98825.94;4985243;28;19918;-72
2023/02/05 03:13:11;;;;;;;;;;;;;;;6.30;46.77;98833.88;4969116;28;20021;-69
2023/02/05 03:15:39;;;;;;;;;;;;;;;6.32;46.58;98832.84;4975169;28;19976;-71
2023/02/05 03:18:05;;;;;;;;;;;;;;;6.31;46.53;98835.56;4983707;28;20768;-72
2023/02/05 03:20:31;;;;;;;;;;;;;;;6.32;46.39;98837.22;4975792;28;19932;-72
2023/02/05 03:22:57;;;;;;;;;;;;;;;6.31;47.14;98835.56;4984977;28;20399;-72
2023/02/05 03:25:22;;;;;;;;;;;;;;;6.29;46.80;98838.25;4974075;28;19918;-71
2023/02/05 03:27:47;;;;;;;;;;;;;;;6.27;46.66;98845.25;4984619;28;19976;-72
2023/02/05 03:30:13;;;;;;;;;;;;;;;6.26;46.57;98841.00;4984606;28;19926;-72
2023/02/05 03:32:47;;;;;;;;;;;;;;;6.25;46.66;98851.47;4983232;28;19926;-72
2023/02/05 03:35:18;;;;;;;;;;;;;;;6.24;46.29;98842.84;4968123;28;20004;-72
2023/02/05 03:38:02;;;;;;;;;;;;;;;6.21;46.23;98848.19;5000619;28;19917;-71
2023/02/05 03:40:36;;;;;;;;;;;;;;;6.20;46.28;98859.50;5000844;28;19944;-71
2023/02/05 03:43:22;;;;;;;;;;;;;;;6.19;46.59;98860.41;4982949;28;19922;-72
2023/02/05 03:45:53;;;;;;;;;;;;;;;6.18;46.12;98863.09;4984858;28;19924;-72
2023/02/05 03:48:35;;;;;;;;;;;;;;;6.15;46.48;98861.50;4984923;28;19918;-71
2023/02/05 03:51:21;;;;;;;;;;;;;;;6.12;46.18;98857.34;4985315;28;20297;-71
2023/02/05 03:53:59;;;;;;;;;;;;;;;6.10;45.86;98858.34;4967098;28;19948;-73
2023/02/05 03:56:24;;;;;;;;;;;;;;;6.06;46.43;98851.69;4982673;28;19925;-72
2023/02/05 03:58:51;;;;;;;;;;;;;;;6.06;46.18;98854.25;5001519;28;19924;-73
2023/02/05 04:01:16;;;;;;;;;;;;;;;6.06;46.33;98857.69;4984310;28;20313;-73
2023/02/05 04:03:41;;;;;;;;;;;;;;;6.06;46.39;98862.03;4982670;28;19918;-72
2023/02/05 04:06:07;;;;;;;;;;;;;;;6.03;46.04;98872.56;4986626;28;19918;-72
2023/02/05 04:08:32;;;;;;;;;;;;;;;6.00;46.08;98886.53;4987319;28;19925;-72
2023/02/05 04:10:57;;;;;;;;;;;;;;;6.00;46.21;98883.94;5004267;28;20024;-72
2023/02/05 04:13:22;;;;;;;;;;;;;;;5.99;46.09;98900.38;4986155;28;19918;-71
2023/02/05 04:15:48;;;;;;;;;;;;;;;6.00;46.22;98890.88;4988245;28;20016;-72
2023/02/05 04:18:13;;;;;;;;;;;;;;;5.98;46.15;98894.38;4972611;28;19940;-72
2023/02/05 04:20:39;;;;;;;;;;;;;;;5.98;46.25;98911.69;4986402;28;19932;-72
2023/02/05 04:23:04;;;;;;;;;;;;;;;5.95;45.75;98901.47;4988418;28;19917;-71
2023/02/05 04:25:29;;;;;;;;;;;;;;;5.92;45.76;98906.81;4986745;28;19918;-71
2023/02/05 04:27:55;;;;;;;;;;;;;;;5.87;44.88;98907.06;4978591;28;20019;-72
2023/02/05 04:30:20;;;;;;;;;;;;;;;5.83;45.25;98923.69;4988101;28;19960;-72
2023/02/05 04:32:45;;;;;;;;;;;;;;;5.79;45.57;98920.44;5003614;28;19922;-72
2023/02/05 04:35:10;;;;;;;;;;;;;;;5.78;44.45;98928.28;4979138;28;19917;-72
2023/02/05 04:37:36;;;;;;;;;;;;;;;5.75;45.14;98936.22;4973178;28;20008;-72
2023/02/05 04:40:01;;;;;;;;;;;;;;;5.72;44.81;98936.38;4977395;28;19917;-72
2023/02/05 04:42:26;;;;;;;;;;;;;;;5.66;44.70;98949.63;4988028;28;19917;-73
2023/02/05 04:44:53;;;;;;;;;;;;;;;5.62;44.30;98936.84;4986886;28;19918;-73
2023/02/05 04:47:18;;;;;;;;;;;;;;;5.59;44.30;98944.78;4977723;28;19979;-72
2023/02/05 04:49:44;;;;;;;;;;;;;;;5.56;44.13;98949.28;4972630;28;20381;-71
2023/02/05 04:52:09;;;;;;;;;;;;;;;5.54;44.89;98946.78;5004580;28;19917;-72
2023/02/05 04:54:35;;;;;;;;;;;;;;;5.51;44.36;98951.28;4986697;28;19928;-72
2023/02/05 04:57:01;;;;;;;;;;;;;;;5.49;44.20;98963.47;4971274;28;20396;-72
2023/02/05 04:59:28;;;;;;;;;;;;;;;5.43;44.65;98954.28;4985950;28;19928;-72
2023/02/05 05:01:54;;;;;;;;;;;;;;;5.43;44.16;98956.88;4986212;28;19940;-73
2023/02/05 05:04:19;;;;;;;;;;;;;;;5.41;43.95;98951.75;4987143;28;20403;-71
2023/02/05 05:06:44;;;;;;;;;;;;;;;5.39;44.04;98963.97;4985648;28;19925;-70
2023/02/05 05:09:10;;;;;;;;;;;;;;;5.35;43.57;98946.91;5004273;28;19976;-72
2023/02/05 05:11:35;;;;;;;;;;;;;;;5.34;43.78;98952.16;4986875;28;19922;-71
2023/02/05 05:14:00;;;;;;;;;;;;;;;5.31;43.41;98963.50;4971723;28;19918;-70
2023/02/05 05:16:25;;;;;;;;;;;;;;;5.27;43.56;98953.41;4985207;28;19944;-70
2023/02/05 05:18:51;;;;;;;;;;;;;;;5.23;43.22;98963.06;5003180;28;20375;-71
2023/02/05 05:21:16;;;;;;;;;;;;;;;5.19;43.09;98964.97;4986798;28;19929;-71
2023/02/05 05:23:41;;;;;;;;;;;;;;;5.15;43.40;98967.78;4987667;28;19988;-70
2023/02/05 05:26:07;;;;;;;;;;;;;;;5.12;43.08;98963.59;5012352;28;20045;-70
2023/02/05 05:28:33;;;;;;;;;;;;;;;5.08;43.41;98962.91;4997576;28;20380;-68
2023/02/05 05:30:59;;;;;;;;;;;;;;;5.03;43.22;98964.91;4981341;28;19933;-68
2023/02/05 05:33:25;;;;;;;;;;;;;;;5.01;43.21;98960.72;4981210;28;20376;-68
2023/02/05 05:35:50;;;;;;;;;;;;;;;5.00;43.29;98972.00;4980698;28;19921;-69
2023/02/05 05:38:15;;;;;;;;;;;;;;;4.95;42.97;98992.91;4997433;28;19922;-69
2023/02/05 05:46:09;;;;;;;;;;;;;;;5.01;46.51;98989.16;5000068;28;19929;-71
2023/02/05 05:48:34;;;;;;;;;;;;;;;5.01;46.00;98992.63;4997303;28;20319;-73
2023/02/05 05:50:59;;;;;;;;;;;;;;;5.05;45.24;98994.13;4980826;28;19924;-73
2023/02/05 05:53:24;;;;;;;;;;;;;;;5.07;44.81;98987.09;5014611;28;19928;-72
2023/02/05 05:55:50;;;;;;;;;;;;;;;5.39;58.76;98991.59;5017271;28;19926;-73
2023/02/05 05:58:15;;;;;;;;;;;;;;;5.44;53.37;98989.63;4998489;28;19918;-72
2023/02/05 06:00:40;;;;;;;;;;;;;;;5.67;62.50;98977.22;4997174;28;19975;-70
2023/02/05 06:03:06;;;;;;;;;;;;;;;5.71;57.54;98991.66;4980661;28;20343;-72
2023/02/05 06:05:31;;;;;;;;;;;;;;;5.67;52.71;98993.59;4996969;28;19917;-71
2023/02/05 06:07:56;;;;;;;;;;;;;;;5.63;51.63;98994.69;4980678;28;19924;-70
2023/02/05 06:10:22;;;;;;;;;;;;;;;5.63;50.23;99015.41;4980455;28;19924;-69
2023/02/05 06:12:47;;;;;;;;;;;;;;;5.61;47.85;99012.91;4996716;28;19922;-71
2023/02/05 06:15:12;;;;;;;;;;;;;;;5.58;47.23;99007.00;5014196;28;19917;-72
2023/02/05 06:17:38;;;;;;;;;;;;;;;5.54;47.25;99008.94;4996524;28;20064;-72
2023/02/05 06:20:04;;;;;;;;;;;;;;;5.55;45.83;99018.38;4980343;28;19996;-71
2023/02/05 06:22:29;;;;;;;;;;;;;;;5.54;45.40;99021.06;4996585;28;19918;-71
2023/02/05 06:24:54;;;;;;;;;;;;;;;5.52;44.96;99018.53;4979711;28;20026;-71
2023/02/05 06:27:20;;;;;;;;;;;;;;;5.56;44.01;99012.28;5013860;28;19988;-71
2023/02/05 06:29:45;;;;;;;;;;;;;;;5.57;43.46;99018.31;4995234;28;19917;-69
2023/02/05 06:32:10;;;;;;;;;;;;;;;5.59;42.76;99009.53;4995919;28;20359;-71
2023/02/05 06:34:36;;;;;;;;;;;;;;;5.61;42.82;99006.84;4979994;28;19925;-73
2023/02/05 06:37:02;;;;;;;;;;;;;;;5.66;42.79;99023.03;4996045;28;19969;-71
2023/02/05 06:39:27;;;;;;;;;;;;;;;5.72;42.54;99021.84;4979978;28;20369;-71
2023/02/05 06:41:52;;;;;;;;;;;;;;;5.72;41.91;99024.44;5013750;28;19917;-74
2023/02/05 06:44:18;;;;;;;;;;;;;;;5.69;41.62;99019.41;4996424;28;19921;-70
2023/02/05 06:46:43;;;;;;;;;;;;;;;5.85;58.16;99019.44;4996188;28;19924;-71
2023/02/05 06:49:08;;;;;;;;;;;;;;;5.95;52.38;99007.72;4979681;28;19921;-70
2023/02/05 06:51:33;;;;;;;;;;;;;;;5.95;48.48;99021.50;5013679;28;20385;-70
2023/02/05 06:53:59;;;;;;;;;;;;;;;6.25;63.43;99033.78;4994825;28;20004;-73
2023/02/05 06:56:24;;;;;;;;;;;;;;;6.36;58.06;99050.50;4995617;28;19921;-69
2023/02/05 06:58:50;;;;;;;;;;;;;;;6.33;52.77;99060.13;4995652;28;20380;-69
2023/02/05 07:01:15;;;;;;;;;;;;;;;6.37;52.39;99076.34;4995884;28;19917;-69
2023/02/05 07:03:40;;;;;;;;;;;;;;;6.43;58.58;99094.16;4979563;28;19975;-73
2023/02/05 07:06:06;;;;;;;;;;;;;;;6.73;68.31;99093.44;4995373;28;20001;-75
2023/02/05 07:08:31;;;;;;;;;;;;;;;7.40;72.76;99107.00;4979508;28;19917;-72
2023/02/05 07:10:56;;;;;;;;;;;;;;;7.31;62.61;99109.28;4995637;28;19917;-69
2023/02/05 07:13:22;;;;;;;;;;;;;;;7.28;64.46;99123.28;4995366;28;19924;-71
2023/02/05 07:15:48;;;;;;;;;;;;;;;7.36;64.31;99121.06;4979431;28;20375;-79
2023/02/05 07:18:13;;;;;;;;;;;;;;;8.23;75.14;99124.66;4996011;28;19918;-77
2023/02/05 07:20:39;;;;;;;;;;;;;;;8.32;67.18;99138.91;4979746;28;20027;-74
2023/02/05 07:23:04;;;;;;;;;;;;;;;8.18;63.88;99139.72;5012668;28;20064;-79
2023/02/05 07:25:34;;;;;;;;;;;;;;;8.41;64.01;99153.97;4995453;28;19917;-73
2023/02/05 07:28:00;;;;;;;;;;;;;;;8.22;57.13;99142.97;4996937;28;20020;-75
2023/02/05 07:30:25;;;;;;;;;;;;;;;8.18;58.72;99151.91;5013282;28;19956;-71
2023/02/05 07:32:50;;;;;;;;;;;;;;;8.03;55.38;99148.44;5013180;28;20000;-71
2023/02/05 07:35:16;;;;;;;;;;;;;;;7.88;58.41;99151.00;4995432;28;19922;-70
2023/02/05 07:37:41;;;;;;;;;;;;;;;7.92;57.32;99160.31;5012727;28;20368;-69
2023/02/05 07:40:07;;;;;;;;;;;;;;;7.79;55.43;99154.97;4995483;28;20410;-69
2023/02/05 07:42:32;;;;;;;;;;;;;;;7.70;53.69;99155.53;5016654;28;19918;-70
2023/02/05 07:44:57;;;;;;;;;;;;;;;7.88;65.38;99158.81;4983070;28;19976;-70
2023/02/05 07:47:23;;;;;;;;;;;;;;;8.02;62.30;99163.19;5017054;28;19975;-71
2023/02/05 07:49:48;;;;;;;;;;;;;;;8.07;58.63;99155.97;4999278;28;20321;-70
2023/02/05 07:52:13;;;;;;;;;;;;;;;8.09;56.65;99168.88;5016785;28;19975;-72
2023/02/05 07:54:39;;;;;;;;;;;;;;;8.08;54.56;99164.59;4984236;28;20023;-71
2023/02/05 07:57:04;;;;;;;;;;;;;;;8.08;53.17;99173.25;4963128;28;20016;-70
2023/02/05 07:59:29;;;;;;;;;;;;;;;8.19;58.29;99169.16;4997436;28;19918;-70
2023/02/05 08:01:54;;;;;;;;;;;;;;;8.29;57.61;99178.09;4979740;28;19917;-74
2023/02/05 08:04:20;;;;;;;;;;;;;;;8.25;54.49;99164.41;4979695;28;19917;-72
2023/02/05 08:06:45;;;;;;;;;;;;;;;8.62;66.24;99180.44;4979300;28;19917;-73
2023/02/05 08:09:12;;;;;;;;;;;;;;;8.77;59.98;99176.06;4988202;28;19925;-77
2023/02/05 08:11:38;;;;;;;;;;;;;;;9.04;61.95;99176.13;4997808;28;19956;-79
2023/02/05 08:14:03;;;;;;;;;;;;;;;9.17;58.81;99188.34;4997869;28;20024;-76
2023/02/05 08:16:28;;;;;;;;;;;;;;;9.23;54.93;99174.94;4998766;28;19967;-74
2023/02/05 08:18:53;;;;;;;;;;;;;;;9.32;51.88;99176.97;4981917;28;19925;-77
2023/02/05 08:21:20;;;;;;;;;;;;;;;9.51;50.28;99183.59;4982049;28;20404;-74
2023/02/05 08:23:45;;;;;;;;;;;;;;;9.65;51.00;99193.97;4981917;28;19924;-84
2023/02/05 08:26:12;;;;;;;;;;;;;;;9.76;58.46;99185.44;4981743;28;19922;-75
2023/02/05 08:28:37;;;;;;;;;;;;;;;10.00;60.97;99200.41;4998774;28;19971;-78
2023/02/05 08:31:08;;;;;;;;;;;;;;;10.32;58.95;99201.69;4981962;28;19996;-80
2023/02/05 08:33:33;;;;;;;;;;;;;;;10.49;58.08;99215.41;4998162;28;19923;-72
2023/02/05 08:35:58;;;;;;;;;;;;;;;10.81;58.04;99210.56;4981646;28;19917;-75
2023/02/05 08:38:23;;;;;;;;;;;;;;;11.13;58.36;99224.91;4985333;28;20406;-75
2023/02/05 08:40:49;;;;;;;;;;;;;;;11.23;58.65;99223.31;4997868;28;19918;-78
2023/02/05 08:43:15;;;;;;;;;;;;;;;11.31;58.19;99215.75;4998054;28;19918;-76
2023/02/05 08:45:40;;;;;;;;;;;;;;;11.36;57.17;99223.28;5015257;28;19989;-76
2023/02/05 08:48:05;;;;;;;;;;;;;;;11.33;55.33;99223.50;4981071;28;19921;-73
2023/02/05 08:50:30;;;;;;;;;;;;;;;11.29;55.49;99228.13;4980979;28;19917;-75
2023/02/05 08:52:56;;;;;;;;;;;;;;;11.23;55.33;99239.00;5013768;28;19925;-74
2023/02/05 08:55:21;;;;;;;;;;;;;;;11.20;54.81;99234.00;4980554;28;19956;-73
2023/02/05 08:57:46;;;;;;;;;;;;;;;11.14;56.74;99237.88;4980956;28;19917;-74
2023/02/05 09:00:12;;;;;;;;;;;;;;;11.17;59.07;99244.66;4996918;28;20398;-73
2023/02/05 09:02:39;;;;;;;;;;;;;;;11.13;63.27;99244.06;4997063;28;20411;-74
2023/02/05 09:05:04;;;;;;;;;;;;;;;11.34;69.61;99253.94;5017068;28;19918;-73
2023/02/05 09:07:30;;;;;;;;;;;;;;;11.64;70.98;99255.25;4983793;28;19917;-74
2023/02/05 09:09:55;;;;;;;;;;;;;;;11.89;66.73;99239.47;4975946;28;19917;-75
2023/02/05 09:12:20;;;;;;;;;;;;;;;11.92;62.51;99238.41;4961469;28;20425;-74
2023/02/05 09:14:45;;;;;;;;;;;;;;;11.86;60.87;99237.06;4976883;28;19918;-72
2023/02/05 09:17:13;;;;;;;;;;;;;;;11.70;59.78;99254.81;4976215;28;19917;-79
2023/02/05 09:19:38;;;;;;;;;;;;;;;11.60;59.36;99252.03;4983473;28;19925;-82
2023/02/05 09:22:04;;;;;;;;;;;;;;;11.63;63.50;99254.44;4988450;28;20000;-74
2023/02/05 09:24:29;;;;;;;;;;;;;;;11.75;61.65;99266.63;4981202;28;19924;-73
2023/02/05 09:26:55;;;;;;;;;;;;;;;11.80;61.13;99268.06;4977496;28;19921;-73
2023/02/05 09:29:20;;;;;;;;;;;;;;;11.85;62.66;99265.97;4977263;28;19992;-77
2023/02/05 09:31:45;;;;;;;;;;;;;;;11.91;62.21;99266.34;4985332;28;19922;-72
2023/02/05 09:34:11;;;;;;;;;;;;;;;11.99;64.37;99276.28;4996849;28;19988;-73
2023/02/05 09:36:36;;;;;;;;;;;;;;;12.07;63.97;99286.19;4998974;28;20463;-73
2023/02/05 09:39:02;;;;;;;;;;;;;;;12.11;62.95;99270.16;4993758;28;20004;-75
2023/02/05 09:41:29;;;;;;;;;;;;;;;12.18;63.18;99264.47;4976721;28;19976;-73
2023/02/05 09:43:54;;;;;;;;;;;;;;;12.06;63.59;99274.88;4960337;28;20037;-72
2023/02/05 09:46:19;;;;;;;;;;;;;;;12.11;63.56;99278.00;4977509;28;19964;-73
2023/02/05 09:48:49;;;;;;;;;;;;;;;12.12;60.14;99281.44;4995028;28;19922;-74
2023/02/05 09:51:19;;;;;;;;;;;;;;;12.28;60.82;99274.09;4977408;28;19972;-74
2023/02/05 09:53:46;;;;;;;;;;;;;;;12.28;55.41;99279.34;4977574;28;20341;-76
2023/02/05 09:56:12;;;;;;;;;;;;;;;12.27;53.00;99292.53;4960033;28;19926;-74
2023/02/05 09:58:50;;;;;;;;;;;;;;;12.19;50.79;99290.53;4959942;28;19976;-75
2023/02/05 10:01:18;;;;;;;;;;;;;;;12.19;50.15;99294.91;4960179;28;20317;-76
2023/02/05 10:04:05;;;;;;;;;;;;;;;12.13;48.39;99296.22;4976309;28;20397;-74
2023/02/05 10:06:39;;;;;;;;;;;;;;;11.97;47.85;99306.97;4976355;28;19967;-75
2023/02/05 10:09:24;;;;;;;;;;;;;;;11.91;46.97;99295.13;4976221;28;19925;-75
2023/02/05 10:11:49;;;;;;;;;;;;;;;11.87;46.81;99295.44;4976796;28;19949;-75
2023/02/05 10:14:25;;;;;;;;;;;;;;;11.81;43.25;99294.09;4994600;28;19918;-76
2023/02/05 10:17:06;;;;;;;;;;;;;;;11.84;43.44;99296.50;4977251;28;20020;-75
2023/02/05 10:19:38;;;;;;;;;;;;;;;11.94;43.05;99299.34;4994538;28;19968;-75
2023/02/05 10:22:03;;;;;;;;;;;;;;;11.87;41.34;99304.13;4977582;28;19918;-74
2023/02/05 10:24:37;;;;;;;;;;;;;;;11.96;39.16;99291.38;4994555;28;20377;-75
2023/02/05 10:27:15;;;;;;;;;;;;;;;11.91;39.36;99305.59;4994398;28;20373;-75
2023/02/05 10:29:40;;;;;;;;;;;;;;;11.90;38.75;99292.63;4977204;28;19918;-77
2023/02/05 10:32:25;;;;;;;;;;;;;;;11.99;37.90;99299.00;4994309;28;19978;-75
2023/02/05 10:35:06;;;;;;;;;;;;;;;12.07;35.73;99305.31;4977192;28;19918;-75
2023/02/05 10:37:34;;;;;;;;;;;;;;;12.11;34.78;99300.69;4994730;28;19918;-75
2023/02/05 10:39:59;;;;;;;;;;;;;;;12.20;33.66;99304.44;4994154;28;19921;-75
2023/02/05 10:42:31;;;;;;;;;;;;;;;12.35;32.46;99303.28;4977080;28;19968;-75
2023/02/05 10:45:05;;;;;;;;;;;;;;;12.46;31.04;99305.94;4960753;28;19917;-74
2023/02/05 10:47:30;;;;;;;;;;;;;;;12.51;30.33;99316.06;4960467;28;20356;-75
2023/02/05 10:50:02;;;;;;;;;;;;;;;12.70;29.46;99307.66;4994138;28;19917;-74
2023/02/05 10:52:27;;;;;;;;;;;;;;;12.90;28.88;99308.72;4976649;28;19922;-74
2023/02/05 10:54:53;;;;;;;;;;;;;;;12.82;28.10;99306.72;4976310;28;19979;-75
2023/02/05 10:57:19;;;;;;;;;;;;;;;12.61;27.93;99306.56;4960283;28;20377;-72
2023/02/05 11:00:06;;;;;;;;;;;;;;;12.68;27.58;99293.81;4960569;28;20071;-73
2023/02/05 11:02:32;;;;;;;;;;;;;;;12.87;27.41;99302.91;4992636;28;20459;-75
2023/02/05 11:05:01;;;;;;;;;;;;;;;12.61;27.75;99300.50;4976180;28;20261;-74
2023/02/05 11:07:35;;;;;;;;;;;;;;;12.42;27.50;99301.88;4994104;28;19917;-75
2023/02/05 11:10:12;;;;;;;;;;;;;;;12.27;27.62;99311.72;4993579;28;20377;-74
2023/02/05 11:12:38;;;;;;;;;;;;;;;11.99;28.11;99304.22;4982374;28;20075;-75
2023/02/05 11:15:03;;;;;;;;;;;;;;;11.85;27.42;99307.81;4978808;28;20008;-73
2023/02/05 11:17:32;;;;;;;;;;;;;;;11.63;27.82;99311.13;4995721;28;19918;-75
2023/02/05 11:19:59;;;;;;;;;;;;;;;11.39;27.76;99322.41;5013328;28;19922;-74
2023/02/05 11:22:29;;;;;;;;;;;;;;;11.08;27.97;99319.28;4995600;28;19943;-75
2023/02/05 11:25:03;;;;;;;;;;;;;;;10.88;28.47;99310.22;5013421;28;19918;-74
2023/02/05 11:27:32;;;;;;;;;;;;;;;10.59;28.03;99305.19;4995025;28;19921;-74
2023/02/05 11:29:59;;;;;;;;;;;;;;;10.45;27.89;99310.50;4995768;28;19924;-75
2023/02/05 11:32:31;;;;;;;;;;;;;;;10.21;28.57;99318.97;4994914;28;19922;-74
2023/02/05 11:35:16;;;;;;;;;;;;;;;10.11;28.42;99312.69;4979224;28;20381;-75
2023/02/05 11:37:41;;;;;;;;;;;;;;;9.91;28.80;99311.38;4995468;28;20300;-74
2023/02/05 11:40:16;;;;;;;;;;;;;;;9.72;29.09;99317.75;4995415;28;19925;-74
2023/02/05 11:42:41;;;;;;;;;;;;;;;9.54;29.57;99321.53;5012966;28;19922;-75
2023/02/05 11:45:14;;;;;;;;;;;;;;;9.35;29.78;99320.06;4995255;28;19917;-74
2023/02/05 11:47:39;;;;;;;;;;;;;;;9.15;29.93;99316.06;4995311;28;19928;-74
2023/02/05 11:50:06;;;;;;;;;;;;;;;8.99;30.55;99323.16;4979108;28;19918;-74
2023/02/05 11:52:33;;;;;;;;;;;;;;;8.88;30.73;99311.59;5013097;28;19975;-73
2023/02/05 11:54:58;;;;;;;;;;;;;;;8.84;30.73;99310.13;4978782;28;19925;-74
2023/02/05 11:57:32;;;;;;;;;;;;;;;8.80;31.06;99316.44;5012917;28;19971;-74
2023/02/05 11:59:58;;;;;;;;;;;;;;;8.77;31.19;99316.63;4995575;28;19918;-73
2023/02/05 12:02:29;;;;;;;;;;;;;;;8.73;30.51;99309.09;4995086;28;19918;-74
2023/02/05 12:05:27;;;;;;;;;;;;;;;8.68;30.44;99311.97;4995522;28;20420;-74
2023/02/05 12:07:52;;;;;;;;;;;;;;;8.56;31.20;99312.72;4933164;29;20386;-75
2023/02/05 12:10:25;;;;;;;;;;;;;;;8.51;31.26;99311.19;4933090;29;19922;-75
2023/02/05 12:13:05;;;;;;;;;;;;;;;8.50;31.40;99306.91;4918117;29;20366;-75
2023/02/05 12:15:41;;;;;;;;;;;;;;;8.46;31.71;99315.84;4917071;29;20037;-73
2023/02/05 12:18:25;;;;;;;;;;;;;;;8.40;31.43;99310.13;4901489;29;19926;-73
2023/02/05 12:20:57;;;;;;;;;;;;;;;8.32;31.79;99308.81;4933237;29;19923;-74
2023/02/05 12:23:51;;;;;;;;;;;;;;;8.21;31.44;99312.97;4917542;29;20340;-75
2023/02/05 12:26:23;;;;;;;;;;;;;;;8.04;31.96;99329.50;4877480;29;19920;-77
2023/02/05 12:29:00;;;;;;;;;;;;;;;7.89;32.30;99326.84;4864645;29;19967;-74
2023/02/05 12:31:44;;;;;;;;;;;;;;;7.82;32.15;99330.69;4880011;29;20014;-72
2023/02/05 12:34:12;;;;;;;;;;;;;;;7.79;32.56;99325.69;4879782;29;19980;-75
2023/02/05 12:36:41;;;;;;;;;;;;;;;7.82;32.20;99325.50;4880084;29;19919;-73
2023/02/05 12:39:25;;;;;;;;;;;;;;;7.83;32.67;99332.41;4849088;29;19920;-74
2023/02/05 12:42:01;;;;;;;;;;;;;;;7.79;32.88;99328.28;4879543;29;19926;-73
2023/02/05 12:44:26;;;;;;;;;;;;;;;7.77;33.58;99330.97;4931270;29;19926;-73
2023/02/05 12:46:58;;;;;;;;;;;;;;;7.81;34.63;99342.00;4955221;29;20497;-71
2023/02/05 12:49:30;;;;;;;;;;;;;;;7.83;33.78;99327.19;4938088;29;20110;-73
2023/02/05 12:51:56;;;;;;;;;;;;;;;7.81;33.12;99329.03;4939161;29;19967;-74
2023/02/05 12:54:41;;;;;;;;;;;;;;;7.75;32.16;99332.81;4954741;29;19922;-73
2023/02/05 12:57:10;;;;;;;;;;;;;;;7.72;31.78;99340.78;4939778;29;20305;-74
2023/02/05 12:59:38;;;;;;;;;;;;;;;7.66;31.68;99335.09;4919956;29;19957;-71
2023/02/05 13:02:04;;;;;;;;;;;;;;;7.95;59.74;99336.91;4934672;28;19924;-72
2023/02/05 13:04:33;;;;;;;;;;;;;;;8.07;46.59;99337.97;4995944;28;20008;-75
2023/02/05 13:07:19;;;;;;;;;;;;;;;8.02;42.01;99336.53;4978435;28;19925;-74